sensor_id;sensor_type;location;lat;lon;timestamp;P1;durP1;ratioP1;P2;durP2;ratioP2
9208;SDS011;4639;48.862;9.188;2023-03-04T00:01:50;45.20;;;29.48;;
9208;SDS011;4639;48.862;9.188;2023-03-04T00:04:16;44.25;;;29.17;;
9208;SDS011;4639;48.862;9.188;2023-03-04T00:06:41;45.45;;;29.25;;
9208;SDS011;4639;48.862;9.188;2023-03-04T00:09:07;42.08;;;28.15;;
9208;SDS011;4639;48.862;9.188;2023-03-04T00:11:33;41.95;;;27.73;;
9208;SDS011;4639;48.862;9.188;2023-03-04T00:13:58;43.40;;;29.25;;
9208;SDS011;4639;48.862;9.188;2023-03-04T00:16:24;46.78;;;28.92;;
9208;SDS011;4639;48.862;9.188;2023-03-04T00:18:53;45.30;;;28.88;;
9208;SDS011;4639;48.862;9.188;2023-03-04T00:21:20;45.30;;;27.60;;
9208;SDS011;4639;48.862;9.188;2023-03-04T00:23:45;41.58;;;28.60;;
9208;SDS011;4639;48.862;9.188;2023-03-04T00:26:11;45.63;;;29.08;;
9208;SDS011;4639;48.862;9.188;2023-03-04T00:28:37;49.30;;;28.73;;
9208;SDS011;4639;48.862;9.188;2023-03-04T00:31:04;55.80;;;32.05;;
9208;SDS011;4639;48.862;9.188;2023-03-04T00:33:30;55.75;;;33.55;;
9208;SDS011;4639;48.862;9.188;2023-03-04T00:35:55;51.55;;;32.08;;
9208;SDS011;4639;48.862;9.188;2023-03-04T00:38:21;57.00;;;34.00;;
9208;SDS011;4639;48.862;9.188;2023-03-04T00:40:47;55.30;;;34.70;;
9208;SDS011;4639;48.862;9.188;2023-03-04T00:43:12;51.03;;;31.80;;
9208;SDS011;4639;48.862;9.188;2023-03-04T00:45:38;54.40;;;34.17;;
9208;SDS011;4639;48.862;9.188;2023-03-04T00:48:03;52.72;;;32.70;;
9208;SDS011;4639;48.862;9.188;2023-03-04T00:50:29;49.17;;;32.40;;
9208;SDS011;4639;48.862;9.188;2023-03-04T00:52:55;49.58;;;31.70;;
9208;SDS011;4639;48.862;9.188;2023-03-04T00:55:20;49.50;;;32.15;;
9208;SDS011;4639;48.862;9.188;2023-03-04T00:57:46;47.83;;;29.88;;
9208;SDS011;4639;48.862;9.188;2023-03-04T01:00:12;43.10;;;29.85;;
9208;SDS011;4639;48.862;9.188;2023-03-04T01:02:38;41.25;;;27.65;;
9208;SDS011;4639;48.862;9.188;2023-03-04T01:05:04;43.67;;;27.52;;
9208;SDS011;4639;48.862;9.188;2023-03-04T01:07:30;39.20;;;25.83;;
9208;SDS011;4639;48.862;9.188;2023-03-04T01:09:56;42.65;;;26.35;;
9208;SDS011;4639;48.862;9.188;2023-03-04T01:12:21;38.47;;;27.10;;
9208;SDS011;4639;48.862;9.188;2023-03-04T01:14:47;43.13;;;27.58;;
9208;SDS011;4639;48.862;9.188;2023-03-04T01:17:12;37.25;;;26.52;;
9208;SDS011;4639;48.862;9.188;2023-03-04T01:19:38;51.97;;;27.63;;
9208;SDS011;4639;48.862;9.188;2023-03-04T01:22:03;40.60;;;27.90;;
9208;SDS011;4639;48.862;9.188;2023-03-04T01:24:29;40.88;;;27.48;;
9208;SDS011;4639;48.862;9.188;2023-03-04T01:26:55;42.33;;;28.63;;
9208;SDS011;4639;48.862;9.188;2023-03-04T01:29:20;42.53;;;27.88;;
9208;SDS011;4639;48.862;9.188;2023-03-04T01:31:46;45.17;;;28.10;;
9208;SDS011;4639;48.862;9.188;2023-03-04T01:34:12;39.25;;;26.98;;
9208;SDS011;4639;48.862;9.188;2023-03-04T01:36:37;39.75;;;26.52;;
9208;SDS011;4639;48.862;9.188;2023-03-04T01:39:03;38.30;;;26.10;;
9208;SDS011;4639;48.862;9.188;2023-03-04T01:41:29;38.88;;;25.10;;
9208;SDS011;4639;48.862;9.188;2023-03-04T01:43:55;39.30;;;24.50;;
9208;SDS011;4639;48.862;9.188;2023-03-04T01:46:21;35.15;;;23.73;;
9208;SDS011;4639;48.862;9.188;2023-03-04T01:48:48;34.60;;;21.75;;
9208;SDS011;4639;48.862;9.188;2023-03-04T01:51:14;35.63;;;22.48;;
9208;SDS011;4639;48.862;9.188;2023-03-04T01:53:41;34.90;;;22.05;;
9208;SDS011;4639;48.862;9.188;2023-03-04T01:56:15;34.05;;;23.55;;
9208;SDS011;4639;48.862;9.188;2023-03-04T01:58:49;33.80;;;22.45;;
9208;SDS011;4639;48.862;9.188;2023-03-04T02:01:32;32.70;;;22.35;;
9208;SDS011;4639;48.862;9.188;2023-03-04T02:03:58;32.47;;;20.85;;
9208;SDS011;4639;48.862;9.188;2023-03-04T02:06:24;34.03;;;21.90;;
9208;SDS011;4639;48.862;9.188;2023-03-04T02:08:49;33.55;;;23.08;;
9208;SDS011;4639;48.862;9.188;2023-03-04T02:11:15;34.05;;;22.27;;
9208;SDS011;4639;48.862;9.188;2023-03-04T02:13:41;31.95;;;21.58;;
9208;SDS011;4639;48.862;9.188;2023-03-04T02:16:06;32.20;;;21.08;;
9208;SDS011;4639;48.862;9.188;2023-03-04T02:18:32;30.40;;;20.75;;
9208;SDS011;4639;48.862;9.188;2023-03-04T02:21:01;30.70;;;21.27;;
9208;SDS011;4639;48.862;9.188;2023-03-04T02:26:27;32.03;;;20.48;;
9208;SDS011;4639;48.862;9.188;2023-03-04T02:28:55;31.48;;;20.42;;
9208;SDS011;4639;48.862;9.188;2023-03-04T02:34:01;31.45;;;20.90;;
9208;SDS011;4639;48.862;9.188;2023-03-04T02:36:33;30.80;;;21.17;;
9208;SDS011;4639;48.862;9.188;2023-03-04T02:39:04;32.88;;;21.60;;
9208;SDS011;4639;48.862;9.188;2023-03-04T02:41:35;30.43;;;21.47;;
9208;SDS011;4639;48.862;9.188;2023-03-04T02:44:00;30.13;;;20.73;;
9208;SDS011;4639;48.862;9.188;2023-03-04T02:46:26;31.63;;;20.90;;
9208;SDS011;4639;48.862;9.188;2023-03-04T02:48:52;36.03;;;22.33;;
9208;SDS011;4639;48.862;9.188;2023-03-04T02:51:18;33.72;;;22.27;;
9208;SDS011;4639;48.862;9.188;2023-03-04T02:53:43;34.63;;;22.47;;
9208;SDS011;4639;48.862;9.188;2023-03-04T02:56:09;35.28;;;21.30;;
9208;SDS011;4639;48.862;9.188;2023-03-04T02:58:34;29.92;;;20.65;;
9208;SDS011;4639;48.862;9.188;2023-03-04T03:01:02;29.45;;;20.98;;
9208;SDS011;4639;48.862;9.188;2023-03-04T03:03:29;30.90;;;21.70;;
9208;SDS011;4639;48.862;9.188;2023-03-04T03:05:54;31.57;;;20.83;;
9208;SDS011;4639;48.862;9.188;2023-03-04T03:08:20;32.08;;;20.92;;
9208;SDS011;4639;48.862;9.188;2023-03-04T03:10:46;34.10;;;22.53;;
9208;SDS011;4639;48.862;9.188;2023-03-04T03:13:11;36.73;;;22.33;;
9208;SDS011;4639;48.862;9.188;2023-03-04T03:15:37;36.27;;;21.47;;
9208;SDS011;4639;48.862;9.188;2023-03-04T03:18:06;35.15;;;22.02;;
9208;SDS011;4639;48.862;9.188;2023-03-04T03:20:35;32.03;;;21.50;;
9208;SDS011;4639;48.862;9.188;2023-03-04T03:23:01;34.40;;;22.27;;
9208;SDS011;4639;48.862;9.188;2023-03-04T03:25:27;30.90;;;21.47;;
9208;SDS011;4639;48.862;9.188;2023-03-04T03:27:53;35.50;;;22.53;;
9208;SDS011;4639;48.862;9.188;2023-03-04T03:30:18;37.57;;;22.80;;
9208;SDS011;4639;48.862;9.188;2023-03-04T03:32:44;35.03;;;22.27;;
9208;SDS011;4639;48.862;9.188;2023-03-04T03:35:10;33.37;;;22.33;;
9208;SDS011;4639;48.862;9.188;2023-03-04T03:37:36;39.33;;;23.43;;
9208;SDS011;4639;48.862;9.188;2023-03-04T03:40:02;36.90;;;22.63;;
9208;SDS011;4639;48.862;9.188;2023-03-04T03:42:28;34.97;;;23.77;;
9208;SDS011;4639;48.862;9.188;2023-03-04T03:44:54;37.10;;;23.23;;
9208;SDS011;4639;48.862;9.188;2023-03-04T03:47:20;34.00;;;22.67;;
9208;SDS011;4639;48.862;9.188;2023-03-04T03:49:45;39.37;;;23.30;;
9208;SDS011;4639;48.862;9.188;2023-03-04T03:52:11;36.70;;;23.93;;
9208;SDS011;4639;48.862;9.188;2023-03-04T03:54:37;37.60;;;23.10;;
9208;SDS011;4639;48.862;9.188;2023-03-04T03:57:03;37.27;;;23.00;;
9208;SDS011;4639;48.862;9.188;2023-03-04T03:59:28;37.53;;;24.37;;
9208;SDS011;4639;48.862;9.188;2023-03-04T04:01:54;36.77;;;24.57;;
9208;SDS011;4639;48.862;9.188;2023-03-04T04:04:19;37.17;;;23.93;;
9208;SDS011;4639;48.862;9.188;2023-03-04T04:06:45;39.63;;;24.73;;
9208;SDS011;4639;48.862;9.188;2023-03-04T04:09:10;40.10;;;24.20;;
9208;SDS011;4639;48.862;9.188;2023-03-04T04:11:36;38.50;;;24.53;;
9208;SDS011;4639;48.862;9.188;2023-03-04T04:14:02;39.57;;;24.63;;
9208;SDS011;4639;48.862;9.188;2023-03-04T04:16:27;37.63;;;23.50;;
9208;SDS011;4639;48.862;9.188;2023-03-04T04:18:54;38.85;;;25.80;;
9208;SDS011;4639;48.862;9.188;2023-03-04T04:21:20;36.73;;;24.27;;
9208;SDS011;4639;48.862;9.188;2023-03-04T04:23:45;43.90;;;25.17;;
9208;SDS011;4639;48.862;9.188;2023-03-04T04:26:11;42.87;;;26.53;;
9208;SDS011;4639;48.862;9.188;2023-03-04T04:28:36;38.83;;;24.30;;
9208;SDS011;4639;48.862;9.188;2023-03-04T04:31:05;38.67;;;24.90;;
9208;SDS011;4639;48.862;9.188;2023-03-04T04:33:32;43.07;;;25.60;;
9208;SDS011;4639;48.862;9.188;2023-03-04T04:35:58;40.67;;;24.80;;
9208;SDS011;4639;48.862;9.188;2023-03-04T04:38:25;41.37;;;25.50;;
9208;SDS011;4639;48.862;9.188;2023-03-04T04:40:51;43.43;;;27.00;;
9208;SDS011;4639;48.862;9.188;2023-03-04T04:43:16;40.20;;;26.07;;
9208;SDS011;4639;48.862;9.188;2023-03-04T04:45:42;40.57;;;26.20;;
9208;SDS011;4639;48.862;9.188;2023-03-04T04:48:07;44.73;;;26.77;;
9208;SDS011;4639;48.862;9.188;2023-03-04T04:50:33;41.47;;;27.07;;
9208;SDS011;4639;48.862;9.188;2023-03-04T04:52:58;45.20;;;27.73;;
9208;SDS011;4639;48.862;9.188;2023-03-04T04:55:24;44.53;;;26.97;;
9208;SDS011;4639;48.862;9.188;2023-03-04T04:57:50;44.80;;;27.43;;
9208;SDS011;4639;48.862;9.188;2023-03-04T05:00:16;46.00;;;27.20;;
9208;SDS011;4639;48.862;9.188;2023-03-04T05:02:43;50.87;;;28.40;;
9208;SDS011;4639;48.862;9.188;2023-03-04T05:05:09;45.17;;;27.97;;
9208;SDS011;4639;48.862;9.188;2023-03-04T05:07:35;47.50;;;27.90;;
9208;SDS011;4639;48.862;9.188;2023-03-04T05:10:01;43.80;;;27.43;;
9208;SDS011;4639;48.862;9.188;2023-03-04T05:12:26;48.50;;;28.40;;
9208;SDS011;4639;48.862;9.188;2023-03-04T05:14:52;45.63;;;28.63;;
9208;SDS011;4639;48.862;9.188;2023-03-04T05:17:18;48.13;;;28.50;;
9208;SDS011;4639;48.862;9.188;2023-03-04T05:19:43;48.80;;;28.47;;
9208;SDS011;4639;48.862;9.188;2023-03-04T05:22:09;46.13;;;28.00;;
9208;SDS011;4639;48.862;9.188;2023-03-04T05:24:34;50.93;;;28.50;;
9208;SDS011;4639;48.862;9.188;2023-03-04T05:27:00;49.40;;;29.20;;
9208;SDS011;4639;48.862;9.188;2023-03-04T05:29:26;48.23;;;27.13;;
9208;SDS011;4639;48.862;9.188;2023-03-04T05:31:52;48.50;;;29.47;;
9208;SDS011;4639;48.862;9.188;2023-03-04T05:34:17;46.67;;;26.30;;
9208;SDS011;4639;48.862;9.188;2023-03-04T05:36:43;48.73;;;28.73;;
9208;SDS011;4639;48.862;9.188;2023-03-04T05:39:09;48.00;;;28.87;;
9208;SDS011;4639;48.862;9.188;2023-03-04T05:41:35;53.00;;;29.20;;
9208;SDS011;4639;48.862;9.188;2023-03-04T05:44:00;46.93;;;29.43;;
9208;SDS011;4639;48.862;9.188;2023-03-04T05:46:26;56.60;;;29.43;;
9208;SDS011;4639;48.862;9.188;2023-03-04T05:48:52;54.10;;;31.13;;
9208;SDS011;4639;48.862;9.188;2023-03-04T05:51:18;50.73;;;29.80;;
9208;SDS011;4639;48.862;9.188;2023-03-04T05:53:44;56.53;;;31.67;;
9208;SDS011;4639;48.862;9.188;2023-03-04T05:56:10;52.97;;;31.00;;
9208;SDS011;4639;48.862;9.188;2023-03-04T05:58:39;55.33;;;32.03;;
9208;SDS011;4639;48.862;9.188;2023-03-04T06:01:05;57.93;;;32.10;;
9208;SDS011;4639;48.862;9.188;2023-03-04T06:03:30;55.57;;;31.97;;
9208;SDS011;4639;48.862;9.188;2023-03-04T06:05:56;61.50;;;31.97;;
9208;SDS011;4639;48.862;9.188;2023-03-04T06:08:22;56.20;;;32.07;;
9208;SDS011;4639;48.862;9.188;2023-03-04T06:10:50;59.77;;;32.37;;
9208;SDS011;4639;48.862;9.188;2023-03-04T06:13:17;62.83;;;33.20;;
9208;SDS011;4639;48.862;9.188;2023-03-04T06:15:43;57.47;;;31.87;;
9208;SDS011;4639;48.862;9.188;2023-03-04T06:18:09;56.87;;;32.77;;
9208;SDS011;4639;48.862;9.188;2023-03-04T06:20:35;63.97;;;33.57;;
9208;SDS011;4639;48.862;9.188;2023-03-04T06:23:00;63.27;;;33.87;;
9208;SDS011;4639;48.862;9.188;2023-03-04T06:25:26;61.63;;;32.97;;
9208;SDS011;4639;48.862;9.188;2023-03-04T06:27:52;55.80;;;32.50;;
9208;SDS011;4639;48.862;9.188;2023-03-04T06:30:18;61.83;;;32.47;;
9208;SDS011;4639;48.862;9.188;2023-03-04T06:32:44;60.37;;;32.47;;
9208;SDS011;4639;48.862;9.188;2023-03-04T06:35:11;55.73;;;30.80;;
9208;SDS011;4639;48.862;9.188;2023-03-04T06:37:38;58.57;;;33.00;;
9208;SDS011;4639;48.862;9.188;2023-03-04T06:40:04;60.17;;;33.47;;
9208;SDS011;4639;48.862;9.188;2023-03-04T06:42:31;59.43;;;33.50;;
9208;SDS011;4639;48.862;9.188;2023-03-04T06:44:57;65.40;;;34.07;;
9208;SDS011;4639;48.862;9.188;2023-03-04T06:47:26;56.67;;;32.37;;
9208;SDS011;4639;48.862;9.188;2023-03-04T06:49:52;59.67;;;33.90;;
9208;SDS011;4639;48.862;9.188;2023-03-04T06:52:17;62.67;;;32.77;;
9208;SDS011;4639;48.862;9.188;2023-03-04T06:54:43;62.67;;;33.80;;
9208;SDS011;4639;48.862;9.188;2023-03-04T06:57:08;55.90;;;31.80;;
9208;SDS011;4639;48.862;9.188;2023-03-04T06:59:34;60.73;;;33.87;;
9208;SDS011;4639;48.862;9.188;2023-03-04T07:02:00;59.50;;;33.37;;
9208;SDS011;4639;48.862;9.188;2023-03-04T07:04:25;60.37;;;34.97;;
9208;SDS011;4639;48.862;9.188;2023-03-04T07:06:51;57.10;;;34.10;;
9208;SDS011;4639;48.862;9.188;2023-03-04T07:09:17;60.10;;;34.07;;
9208;SDS011;4639;48.862;9.188;2023-03-04T07:11:43;57.30;;;32.93;;
9208;SDS011;4639;48.862;9.188;2023-03-04T07:14:09;56.13;;;32.00;;
9208;SDS011;4639;48.862;9.188;2023-03-04T07:16:34;55.10;;;33.37;;
9208;SDS011;4639;48.862;9.188;2023-03-04T07:19:00;57.87;;;33.57;;
9208;SDS011;4639;48.862;9.188;2023-03-04T07:21:27;58.23;;;32.13;;
9208;SDS011;4639;48.862;9.188;2023-03-04T07:23:53;56.57;;;32.30;;
9208;SDS011;4639;48.862;9.188;2023-03-04T07:26:18;56.07;;;31.30;;
9208;SDS011;4639;48.862;9.188;2023-03-04T07:28:44;51.20;;;31.87;;
9208;SDS011;4639;48.862;9.188;2023-03-04T07:31:29;59.07;;;31.27;;
9208;SDS011;4639;48.862;9.188;2023-03-04T07:34:00;52.03;;;30.23;;
9208;SDS011;4639;48.862;9.188;2023-03-04T07:36:30;50.30;;;29.77;;
9208;SDS011;4639;48.862;9.188;2023-03-04T07:38:57;48.47;;;28.43;;
9208;SDS011;4639;48.862;9.188;2023-03-04T07:41:23;46.60;;;27.73;;
9208;SDS011;4639;48.862;9.188;2023-03-04T07:43:50;41.13;;;27.27;;
9208;SDS011;4639;48.862;9.188;2023-03-04T07:46:16;45.63;;;28.53;;
9208;SDS011;4639;48.862;9.188;2023-03-04T07:48:43;48.15;;;30.35;;
9208;SDS011;4639;48.862;9.188;2023-03-04T07:51:10;45.03;;;28.13;;
9208;SDS011;4639;48.862;9.188;2023-03-04T07:53:37;44.17;;;27.73;;
9208;SDS011;4639;48.862;9.188;2023-03-04T07:56:04;43.90;;;28.43;;
9208;SDS011;4639;48.862;9.188;2023-03-04T07:58:31;48.08;;;28.90;;
9208;SDS011;4639;48.862;9.188;2023-03-04T08:00:57;45.45;;;28.65;;
9208;SDS011;4639;48.862;9.188;2023-03-04T08:03:23;44.17;;;27.70;;
9208;SDS011;4639;48.862;9.188;2023-03-04T08:05:49;41.43;;;27.00;;
9208;SDS011;4639;48.862;9.188;2023-03-04T08:08:15;38.90;;;26.27;;
9208;SDS011;4639;48.862;9.188;2023-03-04T08:10:41;46.65;;;27.98;;
9208;SDS011;4639;48.862;9.188;2023-03-04T08:13:08;48.42;;;27.20;;
9208;SDS011;4639;48.862;9.188;2023-03-04T08:15:38;41.47;;;26.85;;
9208;SDS011;4639;48.862;9.188;2023-03-04T08:18:05;42.03;;;26.63;;
9208;SDS011;4639;48.862;9.188;2023-03-04T08:20:30;43.42;;;26.67;;
9208;SDS011;4639;48.862;9.188;2023-03-04T08:22:56;45.03;;;28.08;;
9208;SDS011;4639;48.862;9.188;2023-03-04T08:25:22;43.17;;;28.20;;
9208;SDS011;4639;48.862;9.188;2023-03-04T08:27:47;43.30;;;26.90;;
9208;SDS011;4639;48.862;9.188;2023-03-04T08:30:13;42.63;;;27.27;;
9208;SDS011;4639;48.862;9.188;2023-03-04T08:32:38;45.08;;;27.83;;
9208;SDS011;4639;48.862;9.188;2023-03-04T08:35:04;43.80;;;27.27;;
9208;SDS011;4639;48.862;9.188;2023-03-04T08:37:30;44.75;;;27.05;;
9208;SDS011;4639;48.862;9.188;2023-03-04T08:39:56;45.45;;;27.67;;
9208;SDS011;4639;48.862;9.188;2023-03-04T08:42:21;43.90;;;27.33;;
9208;SDS011;4639;48.862;9.188;2023-03-04T08:44:48;44.78;;;27.08;;
9208;SDS011;4639;48.862;9.188;2023-03-04T08:47:14;39.65;;;26.02;;
9208;SDS011;4639;48.862;9.188;2023-03-04T08:49:39;47.03;;;28.42;;
9208;SDS011;4639;48.862;9.188;2023-03-04T08:52:05;43.47;;;28.20;;
9208;SDS011;4639;48.862;9.188;2023-03-04T08:54:30;44.47;;;28.30;;
9208;SDS011;4639;48.862;9.188;2023-03-04T08:56:56;48.10;;;29.05;;
9208;SDS011;4639;48.862;9.188;2023-03-04T08:59:22;40.83;;;26.77;;
9208;SDS011;4639;48.862;9.188;2023-03-04T09:01:48;43.13;;;27.05;;
9208;SDS011;4639;48.862;9.188;2023-03-04T09:04:13;43.97;;;27.45;;
9208;SDS011;4639;48.862;9.188;2023-03-04T09:06:39;37.73;;;25.73;;
9208;SDS011;4639;48.862;9.188;2023-03-04T09:09:04;44.50;;;28.30;;
9208;SDS011;4639;48.862;9.188;2023-03-04T09:11:30;39.65;;;25.02;;
9208;SDS011;4639;48.862;9.188;2023-03-04T09:13:56;39.75;;;27.83;;
9208;SDS011;4639;48.862;9.188;2023-03-04T09:16:21;47.58;;;29.13;;
9208;SDS011;4639;48.862;9.188;2023-03-04T09:18:47;50.03;;;34.17;;
9208;SDS011;4639;48.862;9.188;2023-03-04T09:21:13;40.45;;;26.65;;
9208;SDS011;4639;48.862;9.188;2023-03-04T09:23:38;46.65;;;28.23;;
9208;SDS011;4639;48.862;9.188;2023-03-04T09:28:40;38.92;;;24.02;;
9208;SDS011;4639;48.862;9.188;2023-03-04T09:31:13;36.42;;;24.30;;
9208;SDS011;4639;48.862;9.188;2023-03-04T09:33:39;39.03;;;24.60;;
9208;SDS011;4639;48.862;9.188;2023-03-04T09:36:07;37.63;;;23.27;;
9208;SDS011;4639;48.862;9.188;2023-03-04T09:38:37;34.83;;;22.08;;
9208;SDS011;4639;48.862;9.188;2023-03-04T09:41:04;31.92;;;22.13;;
9208;SDS011;4639;48.862;9.188;2023-03-04T09:43:33;35.70;;;22.85;;
9208;SDS011;4639;48.862;9.188;2023-03-04T09:46:06;34.58;;;23.35;;
9208;SDS011;4639;48.862;9.188;2023-03-04T09:48:42;32.05;;;21.88;;
9208;SDS011;4639;48.862;9.188;2023-03-04T09:56:40;28.67;;;20.70;;
9208;SDS011;4639;48.862;9.188;2023-03-04T10:02:14;31.42;;;21.45;;
9208;SDS011;4639;48.862;9.188;2023-03-04T10:04:53;33.40;;;21.80;;
9208;SDS011;4639;48.862;9.188;2023-03-04T10:07:25;27.88;;;19.83;;
9208;SDS011;4639;48.862;9.188;2023-03-04T10:10:16;35.03;;;24.67;;
9208;SDS011;4639;48.862;9.188;2023-03-04T10:13:10;30.80;;;21.92;;
9208;SDS011;4639;48.862;9.188;2023-03-04T10:15:41;35.40;;;24.65;;
9208;SDS011;4639;48.862;9.188;2023-03-04T10:18:13;32.78;;;21.98;;
9208;SDS011;4639;48.862;9.188;2023-03-04T10:24:00;36.95;;;21.40;;
9208;SDS011;4639;48.862;9.188;2023-03-04T10:26:36;32.90;;;22.88;;
9208;SDS011;4639;48.862;9.188;2023-03-04T10:29:02;32.30;;;23.23;;
9208;SDS011;4639;48.862;9.188;2023-03-04T10:31:35;29.42;;;22.58;;
9208;SDS011;4639;48.862;9.188;2023-03-04T10:34:02;29.58;;;22.40;;
9208;SDS011;4639;48.862;9.188;2023-03-04T10:38:58;32.63;;;23.02;;
9208;SDS011;4639;48.862;9.188;2023-03-04T10:41:29;35.40;;;23.58;;
9208;SDS011;4639;48.862;9.188;2023-03-04T10:44:15;36.10;;;25.08;;
9208;SDS011;4639;48.862;9.188;2023-03-04T10:46:43;33.70;;;24.30;;
9208;SDS011;4639;48.862;9.188;2023-03-04T10:49:12;32.60;;;22.88;;
9208;SDS011;4639;48.862;9.188;2023-03-04T10:57:18;34.40;;;25.05;;
9208;SDS011;4639;48.862;9.188;2023-03-04T11:00:03;32.33;;;24.73;;
9208;SDS011;4639;48.862;9.188;2023-03-04T11:02:43;36.70;;;26.42;;
9208;SDS011;4639;48.862;9.188;2023-03-04T11:07:40;35.55;;;24.75;;
9208;SDS011;4639;48.862;9.188;2023-03-04T11:12:51;37.13;;;25.70;;
9208;SDS011;4639;48.862;9.188;2023-03-04T11:18:39;38.53;;;27.13;;
9208;SDS011;4639;48.862;9.188;2023-03-04T11:21:11;39.72;;;26.65;;
9208;SDS011;4639;48.862;9.188;2023-03-04T11:26:18;42.00;;;31.48;;
9208;SDS011;4639;48.862;9.188;2023-03-04T11:37:28;44.08;;;29.92;;
9208;SDS011;4639;48.862;9.188;2023-03-04T11:39:58;37.13;;;28.00;;
9208;SDS011;4639;48.862;9.188;2023-03-04T11:42:35;42.33;;;29.70;;
9208;SDS011;4639;48.862;9.188;2023-03-04T11:56:26;45.08;;;30.83;;
9208;SDS011;4639;48.862;9.188;2023-03-04T12:01:46;43.15;;;30.63;;
9208;SDS011;4639;48.862;9.188;2023-03-04T12:07:34;56.40;;;31.73;;
9208;SDS011;4639;48.862;9.188;2023-03-04T12:20:56;47.05;;;31.73;;
9208;SDS011;4639;48.862;9.188;2023-03-04T12:23:47;41.17;;;31.50;;
9208;SDS011;4639;48.862;9.188;2023-03-04T12:26:56;46.58;;;32.47;;
9208;SDS011;4639;48.862;9.188;2023-03-04T12:32:10;45.00;;;31.63;;
9208;SDS011;4639;48.862;9.188;2023-03-04T12:34:50;48.30;;;31.80;;
9208;SDS011;4639;48.862;9.188;2023-03-04T12:40:22;47.45;;;32.88;;
9208;SDS011;4639;48.862;9.188;2023-03-04T12:42:59;46.58;;;32.28;;
9208;SDS011;4639;48.862;9.188;2023-03-04T12:48:41;51.08;;;35.05;;
9208;SDS011;4639;48.862;9.188;2023-03-04T12:51:16;47.30;;;32.70;;
9208;SDS011;4639;48.862;9.188;2023-03-04T12:54:07;42.25;;;29.92;;
9208;SDS011;4639;48.862;9.188;2023-03-04T12:57:01;43.63;;;31.55;;
9208;SDS011;4639;48.862;9.188;2023-03-04T12:59:35;88.20;;;53.03;;
9208;SDS011;4639;48.862;9.188;2023-03-04T13:08:06;46.38;;;29.20;;
9208;SDS011;4639;48.862;9.188;2023-03-04T13:10:34;41.85;;;28.25;;
9208;SDS011;4639;48.862;9.188;2023-03-04T13:13:00;47.83;;;29.17;;
9208;SDS011;4639;48.862;9.188;2023-03-04T13:15:33;44.30;;;28.33;;
9208;SDS011;4639;48.862;9.188;2023-03-04T13:18:01;41.65;;;26.67;;
9208;SDS011;4639;48.862;9.188;2023-03-04T13:22:59;37.20;;;26.55;;
9208;SDS011;4639;48.862;9.188;2023-03-04T13:25:38;38.90;;;24.95;;
9208;SDS011;4639;48.862;9.188;2023-03-04T13:48:42;30.08;;;19.42;;
9208;SDS011;4639;48.862;9.188;2023-03-04T13:56:24;32.38;;;20.40;;
9208;SDS011;4639;48.862;9.188;2023-03-04T14:04:26;30.08;;;20.60;;
9208;SDS011;4639;48.862;9.188;2023-03-04T14:06:58;29.90;;;21.13;;
9208;SDS011;4639;48.862;9.188;2023-03-04T14:09:26;36.08;;;22.13;;
9208;SDS011;4639;48.862;9.188;2023-03-04T14:11:55;32.45;;;22.42;;
9208;SDS011;4639;48.862;9.188;2023-03-04T14:14:24;32.97;;;22.58;;
9208;SDS011;4639;48.862;9.188;2023-03-04T14:16:59;31.40;;;21.83;;
9208;SDS011;4639;48.862;9.188;2023-03-04T14:19:28;34.28;;;24.35;;
9208;SDS011;4639;48.862;9.188;2023-03-04T14:22:16;35.15;;;23.83;;
9208;SDS011;4639;48.862;9.188;2023-03-04T14:27:38;36.88;;;23.95;;
9208;SDS011;4639;48.862;9.188;2023-03-04T14:30:05;33.35;;;23.75;;
9208;SDS011;4639;48.862;9.188;2023-03-04T14:32:42;34.50;;;23.83;;
9208;SDS011;4639;48.862;9.188;2023-03-04T14:35:17;32.65;;;22.00;;
9208;SDS011;4639;48.862;9.188;2023-03-04T14:37:49;33.35;;;20.73;;
9208;SDS011;4639;48.862;9.188;2023-03-04T14:40:24;34.60;;;20.65;;
9208;SDS011;4639;48.862;9.188;2023-03-04T14:43:03;34.88;;;22.55;;
9208;SDS011;4639;48.862;9.188;2023-03-04T14:45:32;32.95;;;20.73;;
9208;SDS011;4639;48.862;9.188;2023-03-04T14:48:00;32.67;;;21.67;;
9208;SDS011;4639;48.862;9.188;2023-03-04T14:50:30;38.83;;;21.92;;
9208;SDS011;4639;48.862;9.188;2023-03-04T14:53:17;32.83;;;21.70;;
9208;SDS011;4639;48.862;9.188;2023-03-04T14:56:04;34.70;;;21.50;;
9208;SDS011;4639;48.862;9.188;2023-03-04T14:58:31;33.25;;;21.08;;
9208;SDS011;4639;48.862;9.188;2023-03-04T15:01:03;38.05;;;20.50;;
9208;SDS011;4639;48.862;9.188;2023-03-04T15:03:29;36.35;;;20.42;;
9208;SDS011;4639;48.862;9.188;2023-03-04T15:06:04;32.72;;;20.50;;
9208;SDS011;4639;48.862;9.188;2023-03-04T15:08:36;33.38;;;21.38;;
9208;SDS011;4639;48.862;9.188;2023-03-04T15:11:03;32.42;;;20.48;;
9208;SDS011;4639;48.862;9.188;2023-03-04T15:16:14;32.03;;;22.08;;
9208;SDS011;4639;48.862;9.188;2023-03-04T15:18:58;32.58;;;22.25;;
9208;SDS011;4639;48.862;9.188;2023-03-04T15:21:36;29.88;;;20.67;;
9208;SDS011;4639;48.862;9.188;2023-03-04T15:24:04;33.45;;;21.73;;
9208;SDS011;4639;48.862;9.188;2023-03-04T15:26:32;34.90;;;21.98;;
9208;SDS011;4639;48.862;9.188;2023-03-04T15:29:02;32.33;;;21.92;;
9208;SDS011;4639;48.862;9.188;2023-03-04T15:31:39;35.75;;;23.35;;
9208;SDS011;4639;48.862;9.188;2023-03-04T15:34:10;31.60;;;21.15;;
9208;SDS011;4639;48.862;9.188;2023-03-04T15:36:40;34.75;;;22.13;;
9208;SDS011;4639;48.862;9.188;2023-03-04T15:39:09;36.25;;;22.27;;
9208;SDS011;4639;48.862;9.188;2023-03-04T15:41:38;33.08;;;19.48;;
9208;SDS011;4639;48.862;9.188;2023-03-04T15:44:04;35.17;;;21.40;;
9208;SDS011;4639;48.862;9.188;2023-03-04T15:46:29;33.97;;;21.83;;
9208;SDS011;4639;48.862;9.188;2023-03-04T15:48:55;38.25;;;20.73;;
9208;SDS011;4639;48.862;9.188;2023-03-04T15:51:21;27.95;;;19.30;;
9208;SDS011;4639;48.862;9.188;2023-03-04T15:53:50;36.50;;;21.17;;
9208;SDS011;4639;48.862;9.188;2023-03-04T15:56:20;30.77;;;19.52;;
9208;SDS011;4639;48.862;9.188;2023-03-04T15:58:55;28.00;;;19.73;;
9208;SDS011;4639;48.862;9.188;2023-03-04T16:01:33;32.45;;;19.48;;
9208;SDS011;4639;48.862;9.188;2023-03-04T16:03:59;35.28;;;19.08;;
9208;SDS011;4639;48.862;9.188;2023-03-04T16:06:26;32.55;;;20.00;;
9208;SDS011;4639;48.862;9.188;2023-03-04T16:08:54;31.63;;;20.25;;
9208;SDS011;4639;48.862;9.188;2023-03-04T16:11:22;31.98;;;19.58;;
9208;SDS011;4639;48.862;9.188;2023-03-04T16:13:53;29.02;;;19.38;;
9208;SDS011;4639;48.862;9.188;2023-03-04T16:16:19;34.67;;;20.20;;
9208;SDS011;4639;48.862;9.188;2023-03-04T16:18:45;32.70;;;20.30;;
9208;SDS011;4639;48.862;9.188;2023-03-04T16:21:14;34.80;;;21.13;;
9208;SDS011;4639;48.862;9.188;2023-03-04T16:23:44;31.33;;;20.02;;
9208;SDS011;4639;48.862;9.188;2023-03-04T16:26:12;32.35;;;19.48;;
9208;SDS011;4639;48.862;9.188;2023-03-04T16:28:39;31.40;;;19.75;;
9208;SDS011;4639;48.862;9.188;2023-03-04T16:31:05;27.55;;;19.50;;
9208;SDS011;4639;48.862;9.188;2023-03-04T16:33:31;33.55;;;21.05;;
9208;SDS011;4639;48.862;9.188;2023-03-04T16:35:57;37.92;;;20.20;;
9208;SDS011;4639;48.862;9.188;2023-03-04T16:38:24;34.88;;;19.73;;
9208;SDS011;4639;48.862;9.188;2023-03-04T16:40:52;34.90;;;20.23;;
9208;SDS011;4639;48.862;9.188;2023-03-04T16:43:19;35.75;;;21.02;;
9208;SDS011;4639;48.862;9.188;2023-03-04T16:45:45;33.20;;;19.25;;
9208;SDS011;4639;48.862;9.188;2023-03-04T16:48:11;33.55;;;20.38;;
9208;SDS011;4639;48.862;9.188;2023-03-04T16:50:37;32.85;;;19.63;;
9208;SDS011;4639;48.862;9.188;2023-03-04T16:53:03;36.67;;;20.85;;
9208;SDS011;4639;48.862;9.188;2023-03-04T16:55:29;38.40;;;21.20;;
9208;SDS011;4639;48.862;9.188;2023-03-04T16:57:56;34.53;;;20.17;;
9208;SDS011;4639;48.862;9.188;2023-03-04T17:00:23;35.65;;;20.15;;
9208;SDS011;4639;48.862;9.188;2023-03-04T17:02:57;36.15;;;19.63;;
9208;SDS011;4639;48.862;9.188;2023-03-04T17:05:27;30.67;;;19.10;;